createdAt,value
2018-05-23T00:02:09.432Z,18.73
2018-05-23T00:04:37.219Z,23.27
2018-05-23T00:07:05.005Z,16.60
2018-05-23T00:09:32.711Z,20.03
2018-05-23T00:12:00.461Z,18.27
2018-05-23T00:14:28.190Z,18.10
2018-05-23T00:16:56.559Z,19.33
2018-05-23T00:19:24.311Z,20.00
2018-05-23T00:21:52.831Z,18.97
2018-05-23T00:24:21.045Z,20.50
2018-05-23T00:26:48.762Z,18.63
2018-05-23T00:29:16.521Z,20.37
2018-05-23T00:31:44.219Z,20.37
2018-05-23T00:34:12.236Z,22.40
2018-05-23T00:36:39.959Z,21.90
2018-05-23T00:39:07.677Z,21.03
2018-05-23T00:41:35.429Z,17.13
2018-05-23T00:44:03.162Z,19.50
2018-05-23T00:46:31.027Z,20.50
2018-05-23T00:48:59.507Z,17.40
2018-05-23T00:51:27.219Z,23.23
2018-05-23T00:53:55.060Z,17.23
2018-05-23T00:56:22.761Z,17.67
2018-05-23T00:58:50.483Z,19.77
2018-05-23T01:01:19.352Z,19.47
2018-05-23T01:03:47.842Z,18.07
2018-05-23T01:06:16.309Z,19.30
2018-05-23T01:08:44.173Z,18.07
2018-05-23T01:11:11.876Z,17.83
2018-05-23T01:13:39.588Z,17.53
2018-05-23T01:16:07.792Z,18.33
2018-05-23T01:18:36.303Z,15.73
2018-05-23T01:21:04.032Z,15.67
2018-05-23T01:23:32.682Z,15.30
2018-05-23T01:26:00.437Z,14.73
2018-05-23T01:28:28.920Z,12.40
2018-05-23T01:30:56.650Z,14.83
2018-05-23T01:33:24.364Z,12.50
2018-05-23T01:35:52.232Z,12.40
2018-05-23T01:38:19.955Z,13.53
2018-05-23T01:40:47.696Z,17.00
2018-05-23T01:43:15.443Z,15.90
2018-05-23T01:45:44.349Z,13.00
2018-05-23T01:48:12.063Z,13.03
2018-05-23T01:50:39.814Z,13.20
2018-05-23T01:53:07.539Z,11.03
2018-05-23T01:55:36.004Z,15.80
2018-05-23T01:58:04.550Z,11.57
2018-05-23T02:00:32.414Z,11.37
2018-05-23T02:03:00.121Z,11.10
2018-05-23T02:05:28.608Z,14.30
2018-05-23T02:07:57.107Z,11.70
2018-05-23T02:10:24.816Z,9.27
2018-05-23T02:12:52.671Z,10.90
2018-05-23T02:15:21.189Z,10.27
2018-05-23T02:17:49.667Z,11.53
2018-05-23T02:20:18.192Z,16.57
2018-05-23T02:22:45.989Z,12.07
2018-05-23T02:25:13.702Z,11.13
2018-05-23T02:27:41.416Z,10.93
2018-05-23T02:30:09.222Z,10.20
2018-05-23T02:32:37.705Z,15.40
2018-05-23T02:35:06.238Z,12.77
2018-05-23T02:37:33.958Z,9.20
2018-05-23T02:40:01.679Z,9.07
2018-05-23T02:42:29.424Z,10.20
2018-05-23T02:44:57.126Z,14.80
2018-05-23T02:47:25.669Z,9.53
2018-05-23T02:49:53.390Z,14.23
2018-05-23T02:52:21.114Z,13.17
2018-05-23T02:54:50.420Z,10.20
2018-05-23T02:57:18.131Z,13.73
2018-05-23T02:59:45.835Z,9.73
2018-05-23T03:02:13.620Z,10.97
2018-05-23T03:04:42.108Z,10.43
2018-05-23T03:07:09.826Z,13.90
2018-05-23T03:09:38.065Z,10.00
2018-05-23T03:12:06.544Z,13.10
2018-05-23T03:14:35.011Z,10.97
2018-05-23T03:17:03.544Z,10.30
2018-05-23T03:19:31.290Z,14.13
2018-05-23T03:21:59.002Z,10.50
2018-05-23T03:24:26.786Z,11.43
2018-05-23T03:26:54.523Z,11.50
2018-05-23T03:29:22.239Z,10.07
2018-05-23T03:31:50.023Z,10.93
2018-05-23T03:34:17.894Z,10.80
2018-05-23T03:36:45.612Z,19.80
2018-05-23T03:39:14.104Z,23.83
2018-05-23T03:41:42.626Z,12.70
2018-05-23T03:44:10.481Z,12.00
2018-05-23T03:46:38.204Z,10.53
2018-05-23T03:49:05.945Z,12.20
2018-05-23T03:51:33.687Z,13.43
2018-05-23T03:54:01.387Z,12.83
2018-05-23T03:56:29.144Z,13.63
2018-05-23T03:58:56.847Z,11.43
2018-05-23T04:01:37.417Z,10.47
2018-05-23T04:04:17.079Z,16.03
2018-05-23T04:06:56.919Z,13.57
2018-05-23T04:09:25.527Z,12.40
2018-05-23T04:11:53.234Z,19.63
2018-05-23T04:14:21.844Z,9.93
2018-05-23T04:16:49.544Z,9.63
2018-05-23T04:19:17.244Z,14.60
2018-05-23T04:21:44.980Z,14.00
2018-05-23T04:24:12.736Z,11.07
2018-05-23T04:26:40.484Z,11.80
2018-05-23T04:29:08.179Z,15.17
2018-05-23T04:31:35.913Z,12.97
2018-05-23T04:34:03.612Z,11.87
2018-05-23T04:36:31.344Z,14.67
2018-05-23T04:38:59.079Z,13.60
2018-05-23T04:41:26.923Z,10.53
2018-05-23T04:43:55.394Z,10.63
2018-05-23T04:46:23.079Z,9.47
2018-05-23T04:48:51.655Z,10.03
2018-05-23T04:51:20.145Z,13.83
2018-05-23T04:53:48.614Z,7.73
2018-05-23T04:56:16.444Z,9.00
2018-05-23T04:58:44.147Z,7.10
2018-05-23T05:01:12.735Z,8.00
2018-05-23T05:03:41.361Z,8.23
2018-05-23T05:06:09.075Z,7.43
2018-05-23T05:08:37.549Z,13.20
2018-05-23T05:11:06.396Z,9.13
2018-05-23T05:13:36.483Z,8.57
2018-05-23T05:16:05.108Z,7.87
2018-05-23T05:18:32.804Z,7.27
2018-05-23T05:21:00.546Z,6.03
2018-05-23T05:23:28.272Z,9.43
2018-05-23T05:25:56.127Z,4.53
2018-05-23T05:28:24.591Z,14.63
2018-05-23T05:30:53.081Z,12.13
2018-05-23T05:33:21.708Z,7.83
2018-05-23T05:35:49.407Z,7.00
2018-05-23T05:38:17.121Z,7.27
2018-05-23T05:40:44.865Z,10.23
2018-05-23T05:43:13.845Z,8.40
2018-05-23T05:45:42.313Z,10.17
2018-05-23T05:48:10.027Z,12.80
2018-05-23T05:50:37.763Z,12.40
2018-05-23T05:53:06.256Z,6.77
2018-05-23T05:55:34.731Z,7.10
2018-05-23T05:58:03.344Z,5.27
2018-05-23T06:00:31.048Z,7.20
2018-05-23T06:02:58.764Z,7.70
2018-05-23T06:05:26.504Z,8.60
2018-05-23T06:07:54.964Z,6.80
2018-05-23T06:10:22.815Z,6.20
2018-05-23T06:12:50.516Z,6.97
2018-05-23T06:15:18.996Z,7.63
2018-05-23T06:17:47.989Z,16.93
2018-05-23T06:20:16.465Z,7.73
2018-05-23T06:22:44.965Z,5.63
2018-05-23T06:25:12.714Z,7.47
2018-05-23T06:27:41.192Z,8.40
2018-05-23T06:30:09.707Z,8.00
2018-05-23T06:32:37.422Z,11.00
2018-05-23T06:35:05.198Z,10.77
2018-05-23T06:37:33.657Z,10.83
2018-05-23T06:40:02.130Z,8.30
2018-05-23T06:42:30.249Z,10.10
2018-05-23T06:44:57.965Z,10.37
2018-05-23T06:47:25.680Z,5.97
2018-05-23T06:49:54.264Z,8.43
2018-05-23T06:52:21.930Z,11.30
2018-05-23T06:54:50.539Z,6.80
2018-05-23T06:57:18.247Z,6.30
2018-05-23T06:59:45.956Z,8.63
2018-05-23T07:02:13.693Z,9.73
2018-05-23T07:04:42.319Z,8.10
2018-05-23T07:07:10.016Z,7.90
2018-05-23T07:09:37.716Z,7.47
2018-05-23T07:12:06.237Z,7.67
2018-05-23T07:14:34.029Z,6.77
2018-05-23T07:17:01.784Z,11.30
2018-05-23T07:19:29.484Z,9.13
2018-05-23T07:21:57.947Z,11.37
2018-05-23T07:24:25.716Z,12.00
2018-05-23T07:26:53.403Z,9.67
2018-05-23T07:29:21.116Z,8.17
2018-05-23T07:31:48.943Z,10.00
2018-05-23T07:34:16.641Z,9.50
2018-05-23T07:36:44.352Z,16.53
2018-05-23T07:39:12.938Z,10.90
2018-05-23T07:41:41.420Z,10.80
2018-05-23T07:44:09.922Z,8.97
2018-05-23T07:46:37.772Z,10.60
2018-05-23T07:49:06.242Z,7.57
2018-05-23T07:51:34.719Z,7.60
2018-05-23T07:54:03.234Z,6.57
2018-05-23T07:56:30.949Z,7.40
2018-05-23T07:58:58.692Z,8.50
2018-05-23T08:01:26.406Z,8.17
2018-05-23T08:03:55.026Z,8.13
2018-05-23T08:06:22.719Z,8.00
2018-05-23T08:08:50.423Z,9.00
2018-05-23T08:11:19.030Z,12.50
2018-05-23T08:13:46.727Z,9.00
2018-05-23T08:16:14.441Z,7.87
2018-05-23T08:18:42.262Z,9.50
2018-05-23T08:21:09.964Z,6.77
2018-05-23T08:23:38.450Z,7.80
2018-05-23T08:26:07.057Z,11.13
2018-05-23T08:28:34.796Z,7.37
2018-05-23T08:31:03.270Z,8.50
2018-05-23T08:33:31.867Z,15.23
2018-05-23T08:35:59.567Z,9.63
2018-05-23T08:38:27.273Z,10.27
2018-05-23T08:40:55.785Z,8.03
2018-05-23T08:43:23.519Z,7.20
2018-05-23T08:45:52.052Z,6.47
2018-05-23T08:48:19.760Z,13.67
2018-05-23T08:50:47.501Z,8.67
2018-05-23T08:53:15.208Z,9.80
2018-05-23T08:55:43.719Z,7.20
2018-05-23T08:58:11.452Z,12.10
2018-05-23T09:00:39.941Z,13.37
2018-05-23T09:03:07.721Z,9.43
2018-05-23T09:05:35.423Z,8.50
2018-05-23T09:08:03.120Z,8.47
2018-05-23T09:10:31.611Z,9.37
2018-05-23T09:13:00.079Z,9.20
2018-05-23T09:15:28.632Z,13.23
2018-05-23T09:17:57.161Z,10.00
2018-05-23T09:20:25.633Z,11.20
2018-05-23T09:22:54.139Z,9.27
2018-05-23T09:25:22.102Z,9.10
2018-05-23T09:27:49.781Z,6.20
2018-05-23T09:30:17.479Z,10.67
2018-05-23T09:32:45.230Z,10.40
2018-05-23T09:35:12.938Z,10.77
2018-05-23T09:37:41.488Z,10.80
2018-05-23T09:40:09.201Z,10.07
2018-05-23T09:42:36.914Z,11.60
2018-05-23T09:45:04.898Z,11.80
2018-05-23T09:47:32.559Z,13.80
2018-05-23T09:50:00.252Z,7.80
2018-05-23T09:52:28.751Z,6.80
2018-05-23T09:54:56.588Z,6.87
2018-05-23T09:57:24.303Z,12.00
2018-05-23T09:59:51.997Z,7.17
2018-05-23T10:02:19.778Z,9.40
2018-05-23T10:04:48.280Z,10.63
2018-05-23T10:07:15.979Z,11.93
2018-05-23T10:09:43.806Z,9.60
2018-05-23T10:12:12.286Z,7.27
2018-05-23T10:14:40.764Z,12.23
2018-05-23T10:17:09.260Z,7.70
2018-05-23T10:19:37.325Z,9.60
2018-05-23T10:22:05.071Z,9.50
2018-05-23T10:24:33.565Z,7.43
2018-05-23T10:27:02.108Z,11.30
2018-05-23T10:29:29.814Z,11.73
2018-05-23T10:31:58.286Z,8.47
2018-05-23T10:34:26.789Z,10.43
2018-05-23T10:36:54.499Z,9.40
2018-05-23T10:39:22.227Z,7.10
2018-05-23T10:41:50.689Z,8.03
2018-05-23T10:44:19.200Z,16.50
2018-05-23T10:46:46.929Z,9.30
2018-05-23T10:49:15.389Z,10.50
2018-05-23T10:51:43.173Z,9.90
2018-05-23T10:54:11.620Z,9.50
2018-05-23T10:56:39.831Z,10.20
2018-05-23T10:59:08.312Z,10.60
2018-05-23T11:01:36.065Z,11.73
2018-05-23T11:04:03.804Z,7.80
2018-05-23T11:06:31.508Z,8.40
2018-05-23T11:09:00.186Z,11.90
2018-05-23T11:11:27.849Z,8.27
2018-05-23T11:13:56.311Z,7.43
2018-05-23T11:16:24.041Z,10.70
2018-05-23T11:18:51.736Z,7.63
2018-05-23T11:21:19.481Z,9.80
2018-05-23T11:23:47.193Z,10.23
2018-05-23T11:26:15.694Z,10.87
2018-05-23T11:28:43.398Z,7.23
2018-05-23T11:31:11.138Z,7.37
2018-05-23T11:33:38.976Z,7.47
2018-05-23T11:36:07.456Z,10.00
2018-05-23T11:38:35.156Z,8.50
2018-05-23T11:41:03.009Z,5.90
2018-05-23T11:43:30.711Z,9.70
2018-05-23T11:45:58.407Z,15.47
2018-05-23T11:48:26.899Z,7.00
2018-05-23T11:50:54.602Z,6.83
2018-05-23T11:53:22.378Z,9.57
2018-05-23T11:55:50.155Z,7.30
2018-05-23T11:58:17.864Z,7.30
2018-05-23T12:00:46.358Z,7.43
2018-05-23T12:03:14.049Z,8.37
2018-05-23T12:05:41.781Z,14.03
2018-05-23T12:08:09.486Z,10.43
2018-05-23T12:10:37.448Z,8.50
2018-05-23T12:13:05.100Z,14.10
2018-05-23T12:15:35.170Z,10.20
2018-05-23T12:18:04.609Z,7.40
2018-05-23T12:20:33.846Z,7.70
2018-05-23T12:23:01.651Z,6.70
2018-05-23T12:25:29.837Z,5.77
2018-05-23T12:27:58.117Z,11.30
2018-05-23T12:30:27.788Z,6.03
2018-05-23T12:32:57.814Z,5.97
2018-05-23T12:35:31.136Z,7.57
2018-05-23T12:38:00.752Z,10.93
2018-05-23T12:40:29.787Z,9.87
2018-05-23T12:42:58.773Z,5.40
2018-05-23T12:45:27.503Z,7.30
2018-05-23T12:47:55.237Z,5.67
2018-05-23T12:50:22.981Z,7.13
2018-05-23T12:52:50.743Z,7.17
2018-05-23T12:55:19.992Z,7.60
2018-05-23T12:57:49.932Z,5.83
2018-05-23T13:00:19.528Z,7.87
2018-05-23T13:02:48.203Z,7.00
2018-05-23T13:05:15.919Z,9.10
2018-05-23T13:07:43.633Z,4.90
2018-05-23T13:10:11.496Z,5.83
2018-05-23T13:12:40.043Z,8.03
2018-05-23T13:15:07.709Z,6.83
2018-05-23T13:17:36.487Z,10.30
2018-05-23T13:20:05.213Z,5.97
2018-05-23T13:22:33.705Z,6.20
2018-05-23T13:25:01.453Z,5.87
2018-05-23T13:27:29.922Z,5.63
2018-05-23T13:29:58.901Z,5.57
2018-05-23T13:32:28.357Z,5.67
2018-05-23T13:35:05.615Z,5.80
2018-05-23T13:37:41.258Z,8.30
2018-05-23T13:40:09.040Z,8.67
2018-05-23T13:42:37.805Z,4.60
2018-05-23T13:45:06.892Z,8.63
2018-05-23T13:47:34.745Z,6.20
2018-05-23T13:50:04.302Z,3.53
2018-05-23T13:52:32.031Z,7.63
2018-05-23T13:54:59.880Z,4.40
2018-05-23T13:57:28.484Z,7.03
2018-05-23T13:59:56.571Z,5.33
2018-05-23T14:02:25.840Z,5.20
2018-05-23T14:04:53.550Z,4.37
2018-05-23T14:07:23.544Z,5.30
2018-05-23T14:09:52.038Z,3.90
2018-05-23T14:12:25.383Z,12.27
2018-05-23T14:14:54.796Z,5.20
2018-05-23T14:17:24.209Z,8.27
2018-05-23T14:19:53.905Z,6.10
2018-05-23T14:22:25.656Z,3.60
2018-05-23T14:24:53.608Z,7.43
2018-05-23T14:27:23.090Z,5.10
2018-05-23T14:29:50.977Z,6.93
2018-05-23T14:32:18.746Z,2.97
2018-05-23T14:34:47.472Z,3.77
2018-05-23T14:37:16.003Z,6.70
2018-05-23T14:39:44.386Z,3.83
2018-05-23T14:42:12.903Z,2.83
2018-05-23T14:44:41.468Z,4.50
2018-05-23T14:47:09.164Z,3.90
2018-05-23T14:49:36.857Z,2.97
2018-05-23T14:52:05.402Z,3.40
2018-05-23T14:54:33.257Z,3.13
2018-05-23T14:57:02.731Z,5.27
2018-05-23T14:59:31.244Z,11.37
2018-05-23T15:02:00.698Z,3.27
2018-05-23T15:04:28.533Z,5.73
2018-05-23T15:06:57.750Z,6.23
2018-05-23T15:09:25.952Z,8.23
2018-05-23T15:11:54.481Z,3.60
2018-05-23T15:14:22.348Z,6.90
2018-05-23T15:16:50.934Z,4.83
2018-05-23T15:19:20.294Z,5.93
2018-05-23T15:21:50.152Z,4.53
2018-05-23T15:24:19.034Z,6.10
2018-05-23T15:26:46.792Z,7.67
2018-05-23T15:29:14.501Z,5.77
2018-05-23T15:31:43.053Z,4.33
2018-05-23T15:34:10.750Z,3.20
2018-05-23T15:36:41.137Z,2.47
2018-05-23T15:39:09.552Z,6.20
2018-05-23T15:41:38.076Z,2.80
2018-05-23T15:44:05.811Z,4.17
2018-05-23T15:46:33.515Z,3.40
2018-05-23T15:49:01.245Z,5.00
2018-05-23T15:51:28.976Z,4.63
2018-05-23T15:53:56.667Z,6.10
2018-05-23T15:56:25.164Z,4.90
2018-05-23T15:58:53.875Z,3.57
2018-05-23T16:01:23.343Z,8.07
2018-05-23T16:03:51.070Z,3.50
2018-05-23T16:06:18.844Z,4.07
2018-05-23T16:08:47.332Z,4.57
2018-05-23T16:11:15.877Z,6.70
2018-05-23T16:13:43.595Z,5.20
2018-05-23T16:16:11.306Z,7.40
2018-05-23T16:18:39.919Z,7.57
2018-05-23T16:21:08.387Z,4.43
2018-05-23T16:23:36.121Z,3.50
2018-05-23T16:26:03.858Z,4.47
2018-05-23T16:28:32.109Z,5.87
2018-05-23T16:31:01.008Z,8.33
2018-05-23T16:33:29.470Z,3.60
2018-05-23T16:35:57.180Z,3.07
2018-05-23T16:38:25.433Z,3.30
2018-05-23T16:40:55.000Z,3.07
2018-05-23T16:43:22.730Z,3.80
2018-05-23T16:45:55.589Z,3.20
2018-05-23T16:48:28.012Z,3.87
2018-05-23T16:50:55.979Z,4.83
2018-05-23T16:53:27.287Z,3.87
2018-05-23T16:55:59.888Z,4.53
2018-05-23T16:58:31.157Z,4.57
2018-05-23T17:01:03.633Z,6.17
2018-05-23T17:03:32.136Z,2.93
2018-05-23T17:06:11.252Z,4.23
2018-05-23T17:08:45.195Z,5.80
2018-05-23T17:11:17.471Z,2.80
2018-05-23T17:13:48.431Z,4.53
2018-05-23T17:16:19.722Z,7.43
2018-05-23T17:18:49.484Z,3.30
2018-05-23T17:21:17.688Z,2.90
2018-05-23T17:23:45.484Z,4.90
2018-05-23T17:26:14.646Z,3.23
2018-05-23T17:28:42.427Z,9.40
2018-05-23T17:31:10.447Z,3.60
2018-05-23T17:33:41.047Z,4.77
2018-05-23T17:36:10.720Z,4.83
2018-05-23T17:38:39.272Z,3.03
2018-05-23T17:44:19.982Z,3.20
2018-05-23T17:47:07.217Z,6.70
2018-05-23T17:49:53.280Z,3.30
2018-05-23T17:52:22.496Z,6.63
2018-05-23T17:54:52.575Z,4.70
2018-05-23T17:57:21.124Z,2.73
2018-05-23T17:59:50.120Z,2.80
2018-05-23T18:02:19.205Z,5.67
2018-05-23T18:04:46.984Z,5.87
2018-05-23T18:07:16.437Z,8.90
2018-05-23T18:09:44.476Z,2.70
2018-05-23T18:12:12.463Z,12.10
2018-05-23T18:14:41.852Z,3.77
2018-05-23T18:17:11.545Z,2.50
2018-05-23T18:19:40.130Z,3.40
2018-05-23T18:22:07.896Z,3.70
2018-05-23T18:24:35.591Z,6.30
2018-05-23T18:27:03.320Z,6.17
2018-05-23T18:29:31.159Z,3.27
2018-05-23T18:31:58.892Z,3.43
2018-05-23T18:34:26.745Z,3.10
2018-05-23T18:36:54.457Z,3.63
2018-05-23T18:39:22.933Z,4.60
2018-05-23T18:41:51.819Z,2.93
2018-05-23T18:44:20.280Z,3.50
2018-05-23T18:46:54.977Z,4.10
2018-05-23T18:49:24.732Z,5.90
2018-05-23T18:51:55.359Z,6.17
2018-05-23T18:54:23.931Z,2.23
2018-05-23T18:56:51.621Z,3.73
2018-05-23T18:59:20.825Z,3.63
2018-05-23T19:01:49.905Z,4.80
2018-05-23T19:04:18.246Z,2.50
2018-05-23T19:06:46.048Z,4.23
2018-05-23T19:09:14.522Z,7.33
2018-05-23T19:11:43.043Z,7.40
2018-05-23T19:14:14.075Z,2.03
2018-05-23T19:16:43.189Z,4.53
2018-05-23T19:19:12.132Z,2.33
2018-05-23T19:21:40.618Z,7.13
2018-05-23T19:24:09.120Z,3.43
2018-05-23T19:26:37.362Z,3.80
2018-05-23T19:29:08.046Z,3.80
2018-05-23T19:31:36.604Z,5.70
2018-05-23T19:34:06.049Z,3.80
2018-05-23T19:36:34.845Z,3.47
2018-05-23T19:39:02.706Z,4.80
2018-05-23T19:41:31.199Z,3.73
2018-05-23T19:44:01.303Z,3.03
2018-05-23T19:46:30.740Z,3.33
2018-05-23T19:49:00.105Z,4.10
2018-05-23T19:51:29.308Z,3.10
2018-05-23T19:53:57.124Z,4.17
2018-05-23T19:56:25.528Z,1.83
2018-05-23T19:58:54.650Z,4.13
2018-05-23T20:01:25.228Z,2.40
2018-05-23T20:03:53.654Z,3.33
2018-05-23T20:06:21.460Z,8.10
2018-05-23T20:08:49.222Z,4.97
2018-05-23T20:11:17.306Z,5.10
2018-05-23T20:13:45.211Z,4.93
2018-05-23T20:16:13.861Z,4.57
2018-05-23T20:18:43.196Z,3.10
2018-05-23T20:21:11.854Z,3.00
2018-05-23T20:23:41.337Z,2.50
2018-05-23T20:26:09.300Z,2.60
2018-05-23T20:28:37.987Z,2.63
2018-05-23T20:31:06.288Z,3.33
2018-05-23T20:33:34.065Z,5.00
2018-05-23T20:36:01.777Z,5.80
2018-05-23T20:38:30.273Z,2.90
2018-05-23T20:40:58.008Z,3.33
2018-05-23T20:43:26.765Z,2.90
2018-05-23T20:45:54.566Z,1.80
2018-05-23T20:48:23.216Z,7.33
2018-05-23T20:50:52.002Z,9.13
2018-05-23T20:53:19.866Z,6.83
2018-05-23T20:55:47.732Z,4.77
2018-05-23T20:58:15.603Z,4.80
2018-05-23T21:00:43.464Z,3.77
2018-05-23T21:03:11.333Z,2.87
2018-05-23T21:05:39.266Z,3.00
2018-05-23T21:08:08.393Z,2.20
2018-05-23T21:10:36.361Z,3.47
2018-05-23T21:13:04.227Z,2.23
2018-05-23T21:15:32.024Z,2.00
2018-05-23T21:18:00.674Z,3.13
2018-05-23T21:20:28.547Z,3.50
2018-05-23T21:22:56.409Z,5.57
2018-05-23T21:25:24.270Z,3.37
2018-05-23T21:27:52.181Z,2.37
2018-05-23T21:30:20.821Z,12.90
2018-05-23T21:32:49.199Z,3.53
2018-05-23T21:35:16.896Z,7.27
2018-05-23T21:37:45.366Z,7.00
2018-05-23T21:40:13.967Z,3.10
2018-05-23T21:42:42.511Z,1.97
2018-05-23T21:45:10.368Z,2.40
2018-05-23T21:47:38.336Z,6.93
2018-05-23T21:50:06.047Z,6.53
2018-05-23T21:52:34.518Z,1.87
2018-05-23T21:55:03.164Z,3.67
2018-05-23T21:57:31.030Z,2.80
2018-05-23T21:59:59.099Z,3.57
2018-05-23T22:02:26.801Z,3.70
2018-05-23T22:04:55.243Z,5.30
2018-05-23T22:07:23.106Z,4.70
2018-05-23T22:09:50.972Z,4.93
2018-05-23T22:12:18.836Z,2.83
2018-05-23T22:14:46.704Z,3.57
2018-05-23T22:17:14.569Z,2.13
2018-05-23T22:19:42.433Z,2.40
2018-05-23T22:22:10.199Z,3.50
2018-05-23T22:24:38.120Z,3.00
2018-05-23T22:27:06.748Z,9.00
2018-05-23T22:29:34.612Z,2.97
2018-05-23T22:32:02.481Z,6.50
2018-05-23T22:34:30.346Z,2.77
2018-05-23T22:36:58.211Z,7.60
2018-05-23T22:39:26.078Z,7.13
2018-05-23T22:41:53.940Z,5.13
2018-05-23T22:44:21.806Z,5.27
2018-05-23T22:46:49.676Z,2.90
2018-05-23T22:49:17.644Z,3.17
2018-05-23T22:51:45.711Z,4.43
2018-05-23T22:54:13.577Z,3.37
2018-05-23T22:56:41.444Z,7.53
2018-05-23T22:59:09.311Z,3.83
2018-05-23T23:01:37.176Z,3.70
2018-05-23T23:04:05.764Z,3.30
2018-05-23T23:06:33.624Z,3.67
2018-05-23T23:09:01.489Z,3.90
2018-05-23T23:11:29.355Z,12.27
2018-05-23T23:13:57.220Z,6.50
2018-05-23T23:16:25.086Z,4.43
2018-05-23T23:18:53.430Z,4.00
2018-05-23T23:21:22.046Z,3.97
2018-05-23T23:23:49.913Z,9.10
2018-05-23T23:26:17.779Z,3.37
2018-05-23T23:28:45.643Z,6.03
2018-05-23T23:31:13.510Z,4.47
2018-05-23T23:33:41.375Z,7.13
2018-05-23T23:36:09.240Z,3.60
2018-05-23T23:38:37.107Z,6.80
2018-05-23T23:41:05.177Z,4.10
2018-05-23T23:43:33.042Z,3.60
2018-05-23T23:46:00.910Z,4.60
2018-05-23T23:48:28.773Z,4.70
2018-05-23T23:50:57.150Z,5.60
2018-05-23T23:53:25.021Z,6.00
2018-05-23T23:55:52.883Z,3.23
2018-05-23T23:58:20.751Z,4.60
